Time,TemperatureF,DewpointF,PressureIn,WindDirection,WindDirectionDegrees,WindSpeedMPH,WindSpeedGustMPH,Humidity,HourlyPrecipIn,Conditions,Clouds,dailyrainin,SoftwareType,DateUTC
2014-01-02 00:11:00,26.0,24.0,30.17,East,84,0.0,0.0,93,0.00,,,0.00,weatherlink.com 1.10,2014-01-02 05:11:00,
2014-01-02 00:26:00,26.1,25.0,30.16,East,84,0.0,0.0,94,0.00,,,0.00,weatherlink.com 1.10,2014-01-02 05:26:00,
2014-01-02 00:41:00,26.3,25.0,30.16,East,84,0.0,0.0,94,0.00,,,0.00,weatherlink.com 1.10,2014-01-02 05:41:00,
2014-01-02 00:56:00,26.5,25.0,30.15,East,84,0.0,1.0,94,0.00,,,0.00,weatherlink.com 1.10,2014-01-02 05:56:00,
2014-01-02 01:11:00,26.5,25.0,30.14,East,84,0.0,0.0,93,0.00,,,0.00,weatherlink.com 1.10,2014-01-02 06:11:00,
2014-01-02 01:26:00,26.3,25.0,30.14,East,84,0.0,0.0,93,0.00,,,0.00,weatherlink.com 1.10,2014-01-02 06:26:00,
2014-01-02 01:42:00,26.2,25.0,30.15,East,84,0.0,0.0,93,0.00,,,0.00,weatherlink.com 1.10,2014-01-02 06:42:00,
2014-01-02 01:56:00,26.3,25.0,30.14,East,84,0.0,0.0,94,0.00,,,0.00,weatherlink.com 1.10,2014-01-02 06:56:00,
2014-01-02 02:12:00,26.9,25.0,30.12,East,84,0.0,0.0,94,0.00,,,0.00,weatherlink.com 1.10,2014-01-02 07:12:00,
2014-01-02 02:27:00,26.6,25.0,30.13,East,84,0.0,0.0,93,0.00,,,0.00,weatherlink.com 1.10,2014-01-02 07:27:00,
2014-01-02 02:42:00,26.7,25.0,30.12,East,84,0.0,0.0,94,0.00,,,0.00,weatherlink.com 1.10,2014-01-02 07:42:00,
2014-01-02 02:57:00,26.8,25.0,30.12,East,84,0.0,0.0,94,0.00,,,0.00,weatherlink.com 1.10,2014-01-02 07:57:00,
2014-01-02 03:12:00,27.3,26.0,30.12,East,84,0.0,1.0,94,0.00,,,0.00,weatherlink.com 1.10,2014-01-02 08:12:00,
2014-01-02 03:27:00,27.4,26.0,30.10,East,84,0.0,0.0,94,0.00,,,0.00,weatherlink.com 1.10,2014-01-02 08:27:00,
2014-01-02 03:42:00,27.4,26.0,30.09,East,84,0.0,0.0,94,0.00,,,0.00,weatherlink.com 1.10,2014-01-02 08:42:00,
2014-01-02 03:57:00,27.4,26.0,30.09,East,84,0.0,0.0,94,0.00,,,0.00,weatherlink.com 1.10,2014-01-02 08:57:00,
2014-01-02 04:12:00,27.4,26.0,30.09,East,84,0.0,0.0,94,0.00,,,0.00,weatherlink.com 1.10,2014-01-02 09:12:00,
2014-01-02 04:27:00,27.5,26.0,30.07,East,84,0.0,1.0,94,0.00,,,0.00,weatherlink.com 1.10,2014-01-02 09:27:00,
2014-01-02 04:42:00,27.5,26.0,30.05,East,84,0.0,0.0,94,0.00,,,0.00,weatherlink.com 1.10,2014-01-02 09:42:00,
2014-01-02 04:57:00,27.5,26.0,30.05,East,84,0.0,0.0,94,0.00,,,0.00,weatherlink.com 1.10,2014-01-02 09:57:00,
2014-01-02 05:12:00,27.4,26.0,30.05,East,84,0.0,1.0,94,0.00,,,0.00,weatherlink.com 1.10,2014-01-02 10:12:00,
2014-01-02 05:27:00,27.4,26.0,30.04,East,84,0.0,0.0,94,0.00,,,0.00,weatherlink.com 1.10,2014-01-02 10:27:00,
2014-01-02 05:42:00,27.7,26.0,30.03,East,84,0.0,0.0,94,0.00,,,0.00,weatherlink.com 1.10,2014-01-02 10:42:00,
2014-01-02 05:57:00,27.6,26.0,30.02,East,84,0.0,0.0,94,0.00,,,0.00,weatherlink.com 1.10,2014-01-02 10:57:00,
2014-01-02 06:12:00,27.4,26.0,30.02,East,84,0.0,0.0,94,0.00,,,0.00,weatherlink.com 1.10,2014-01-02 11:12:00,
2014-01-02 06:27:00,27.4,26.0,30.02,East,84,0.0,0.0,94,0.00,,,0.00,weatherlink.com 1.10,2014-01-02 11:27:00,
2014-01-02 06:42:00,27.5,26.0,30.02,East,84,0.0,0.0,94,0.00,,,0.00,weatherlink.com 1.10,2014-01-02 11:42:00,
2014-01-02 06:57:00,27.7,26.0,30.00,East,84,0.0,0.0,94,0.00,,,0.00,weatherlink.com 1.10,2014-01-02 11:57:00,
2014-01-02 07:12:00,28.0,27.0,30.00,East,84,0.0,0.0,94,0.00,,,0.00,weatherlink.com 1.10,2014-01-02 12:12:00,
2014-01-02 07:27:00,28.1,27.0,30.00,East,84,0.0,2.0,94,0.00,,,0.00,weatherlink.com 1.10,2014-01-02 12:27:00,
2014-01-02 07:42:00,28.3,27.0,30.01,East,84,0.0,0.0,94,0.00,,,0.00,weatherlink.com 1.10,2014-01-02 12:42:00,
2014-01-02 07:57:00,28.4,27.0,29.99,East,84,0.0,0.0,94,0.00,,,0.00,weatherlink.com 1.10,2014-01-02 12:57:00,
2014-01-02 08:12:00,28.5,27.0,30.00,East,84,0.0,0.0,94,0.00,,,0.00,weatherlink.com 1.10,2014-01-02 13:12:00,
2014-01-02 08:27:00,28.7,27.0,29.98,East,84,0.0,0.0,94,0.00,,,0.00,weatherlink.com 1.10,2014-01-02 13:27:00,
2014-01-02 08:42:00,29.2,28.0,29.98,East,84,0.0,2.0,94,0.00,,,0.00,weatherlink.com 1.10,2014-01-02 13:42:00,
2014-01-02 08:57:00,29.6,28.0,29.97,East,84,0.0,1.0,94,0.00,,,0.00,weatherlink.com 1.10,2014-01-02 13:57:00,
2014-01-02 09:12:00,30.2,29.0,29.96,East,84,0.0,0.0,94,0.00,,,0.00,weatherlink.com 1.10,2014-01-02 14:12:00,
2014-01-02 09:27:00,30.8,29.0,29.97,East,84,0.0,1.0,94,0.00,,,0.00,weatherlink.com 1.10,2014-01-02 14:27:00,
2014-01-02 09:42:00,31.8,30.0,29.96,East,84,1.0,1.0,93,0.00,,,0.00,weatherlink.com 1.10,2014-01-02 14:42:00,
2014-01-02 09:57:00,33.5,32.0,29.96,East,84,0.0,0.0,93,0.00,,,0.00,weatherlink.com 1.10,2014-01-02 14:57:00,
2014-01-02 10:12:00,35.0,33.0,29.95,East,84,0.0,0.0,92,0.00,,,0.00,weatherlink.com 1.10,2014-01-02 15:12:00,
2014-01-02 10:28:00,36.5,34.0,29.94,East,84,0.0,1.0,91,0.00,,,0.00,weatherlink.com 1.10,2014-01-02 15:28:00,
2014-01-02 10:43:00,37.7,35.0,29.93,East,84,0.0,2.0,90,0.00,,,0.00,weatherlink.com 1.10,2014-01-02 15:43:00,
2014-01-02 10:58:00,38.9,36.0,29.92,East,84,0.0,1.0,88,0.00,,,0.00,weatherlink.com 1.10,2014-01-02 15:58:00,
2014-01-02 11:13:00,40.2,37.0,29.90,East,84,0.0,0.0,87,0.00,,,0.00,weatherlink.com 1.10,2014-01-02 16:13:00,
2014-01-02 11:28:00,41.5,37.0,29.89,East,84,1.0,2.0,85,0.00,,,0.00,weatherlink.com 1.10,2014-01-02 16:28:00,
2014-01-02 12:13:00,45.0,39.0,29.83,West,276,0.0,3.0,79,0.00,,,0.00,weatherlink.com 1.10,2014-01-02 17:13:00,
2014-01-02 12:28:00,45.3,39.0,29.82,SSW,208,0.0,3.0,78,0.00,,,0.00,weatherlink.com 1.10,2014-01-02 17:28:00,
2014-01-02 12:43:00,45.6,39.0,29.80,SSW,208,0.0,0.0,78,0.00,,,0.00,weatherlink.com 1.10,2014-01-02 17:43:00,
2014-01-02 12:58:00,45.7,39.0,29.80,SSW,209,0.0,0.0,78,0.00,,,0.00,weatherlink.com 1.10,2014-01-02 17:58:00,
2014-01-02 13:13:00,45.4,39.0,29.79,WNW,288,1.0,3.0,79,0.00,,,0.00,weatherlink.com 1.10,2014-01-02 18:13:00,
2014-01-02 13:28:00,44.9,39.0,29.78,West,278,2.0,3.0,79,0.00,,,0.00,weatherlink.com 1.10,2014-01-02 18:28:00,
2014-01-02 13:43:00,43.9,40.0,29.77,WSW,258,4.0,6.0,85,0.01,,,0.01,weatherlink.com 1.10,2014-01-02 18:43:00,
2014-01-02 13:58:00,42.4,40.0,29.77,West,273,0.0,4.0,90,0.02,,,0.02,weatherlink.com 1.10,2014-01-02 18:58:00,
2014-01-02 14:13:00,42.1,40.0,29.76,West,275,0.0,2.0,92,0.03,,,0.03,weatherlink.com 1.10,2014-01-02 19:13:00,
2014-01-02 14:28:00,42.0,40.0,29.76,West,275,0.0,0.0,93,0.04,,,0.04,weatherlink.com 1.10,2014-01-02 19:28:00,
2014-01-02 14:43:00,41.9,40.0,29.75,West,275,0.0,1.0,93,0.05,,,0.06,weatherlink.com 1.10,2014-01-02 19:43:00,
2014-01-02 14:58:00,41.9,40.0,29.74,West,275,0.0,0.0,94,0.06,,,0.08,weatherlink.com 1.10,2014-01-02 19:58:00,
2014-01-02 15:13:00,41.9,40.0,29.74,West,275,0.0,1.0,94,0.05,,,0.08,weatherlink.com 1.10,2014-01-02 20:13:00,
2014-01-02 15:28:00,41.9,40.0,29.72,South,187,0.0,0.0,94,0.06,,,0.10,weatherlink.com 1.10,2014-01-02 20:28:00,
2014-01-02 15:43:00,41.8,40.0,29.71,South,187,0.0,1.0,94,0.07,,,0.13,weatherlink.com 1.10,2014-01-02 20:43:00,
2014-01-02 15:59:00,41.8,40.0,29.71,ESE,117,0.0,1.0,94,0.06,,,0.14,weatherlink.com 1.10,2014-01-02 20:59:00,
2014-01-02 16:14:00,41.7,40.0,29.71,ESE,117,0.0,0.0,95,0.08,,,0.16,weatherlink.com 1.10,2014-01-02 21:14:00,
2014-01-02 16:29:00,41.7,40.0,29.70,ESE,117,0.0,0.0,95,0.09,,,0.19,weatherlink.com 1.10,2014-01-02 21:29:00,
2014-01-02 16:44:00,41.6,40.0,29.69,ESE,117,0.0,0.0,95,0.09,,,0.22,weatherlink.com 1.10,2014-01-02 21:44:00,
2014-01-02 16:59:00,41.5,40.0,29.68,ESE,117,2.0,2.0,95,0.11,,,0.25,weatherlink.com 1.10,2014-01-02 21:59:00,
2014-01-02 17:14:00,41.3,40.0,29.67,ESE,117,1.0,2.0,95,0.10,,,0.26,weatherlink.com 1.10,2014-01-02 22:14:00,
2014-01-02 17:29:00,41.2,40.0,29.68,ESE,117,1.0,2.0,95,0.09,,,0.29,weatherlink.com 1.10,2014-01-02 22:29:00,
2014-01-02 17:44:00,41.2,40.0,29.67,SE,125,0.0,2.0,95,0.10,,,0.32,weatherlink.com 1.10,2014-01-02 22:44:00,
2014-01-02 17:59:00,41.2,40.0,29.69,SW,220,1.0,1.0,95,0.09,,,0.34,weatherlink.com 1.10,2014-01-02 22:59:00,
2014-01-02 18:14:00,41.3,40.0,29.70,WSW,256,1.0,3.0,95,0.10,,,0.36,weatherlink.com 1.10,2014-01-02 23:14:00,
2014-01-02 18:44:00,41.4,40.0,29.67,West,265,0.0,0.0,95,0.09,,,0.41,weatherlink.com 1.10,2014-01-02 23:44:00,
2014-01-02 18:59:00,41.2,40.0,29.68,West,264,0.0,0.0,95,0.08,,,0.42,weatherlink.com 1.10,2014-01-02 23:59:00,
2014-01-02 19:14:00,41.1,40.0,29.66,West,265,0.0,2.0,95,0.07,,,0.44,weatherlink.com 1.10,2014-01-03 00:14:00,
2014-01-02 19:29:00,41.0,40.0,29.66,West,265,0.0,0.0,95,0.05,,,0.45,weatherlink.com 1.10,2014-01-03 00:29:00,
2014-01-02 19:44:00,40.9,40.0,29.66,West,265,0.0,0.0,95,0.06,,,0.47,weatherlink.com 1.10,2014-01-03 00:44:00,
2014-01-02 19:59:00,40.8,40.0,29.67,West,265,0.0,0.0,96,0.07,,,0.49,weatherlink.com 1.10,2014-01-03 00:59:00,
2014-01-02 20:14:00,41.0,40.0,29.65,WNW,286,1.0,4.0,96,0.06,,,0.50,weatherlink.com 1.10,2014-01-03 01:14:00,
2014-01-02 20:29:00,40.7,40.0,29.64,NNW,334,0.0,6.0,96,0.06,,,0.51,weatherlink.com 1.10,2014-01-03 01:29:00,
2014-01-02 20:44:00,40.5,39.0,29.64,NNW,334,0.0,2.0,95,0.04,,,0.51,weatherlink.com 1.10,2014-01-03 01:44:00,
2014-01-02 20:59:00,40.1,39.0,29.65,WNW,289,1.0,5.0,95,0.02,,,0.51,weatherlink.com 1.10,2014-01-03 01:59:00,
2014-01-02 21:14:00,39.9,39.0,29.66,West,277,2.0,5.0,95,0.01,,,0.51,weatherlink.com 1.10,2014-01-03 02:14:00,
2014-01-02 21:29:00,39.6,38.0,29.65,WNW,285,2.0,6.0,95,0.01,,,0.52,weatherlink.com 1.10,2014-01-03 02:29:00,
2014-01-02 21:44:00,39.4,38.0,29.66,West,261,1.0,4.0,95,0.01,,,0.52,weatherlink.com 1.10,2014-01-03 02:44:00,
2014-01-02 21:59:00,39.2,38.0,29.66,WNW,290,0.0,5.0,95,0.01,,,0.52,weatherlink.com 1.10,2014-01-03 02:59:00,
2014-01-02 22:14:00,39.0,38.0,29.67,West,281,3.0,6.0,95,0.01,,,0.52,weatherlink.com 1.10,2014-01-03 03:14:00,
2014-01-02 22:29:00,38.9,38.0,29.66,WNW,300,2.0,3.0,95,0.00,,,0.52,weatherlink.com 1.10,2014-01-03 03:29:00,
2014-01-02 22:44:00,38.8,38.0,29.66,West,281,4.0,6.0,95,0.00,,,0.52,weatherlink.com 1.10,2014-01-03 03:44:00,
2014-01-02 22:59:00,38.6,37.0,29.67,WNW,291,4.0,6.0,95,0.00,,,0.52,weatherlink.com 1.10,2014-01-03 03:59:00,
2014-01-02 23:14:00,38.8,38.0,29.67,NW,308,3.0,10.0,95,0.00,,,0.52,weatherlink.com 1.10,2014-01-03 04:14:00,
2014-01-02 23:29:00,38.9,37.0,29.68,West,264,5.0,8.0,93,0.00,,,0.52,weatherlink.com 1.10,2014-01-03 04:29:00,
2014-01-02 23:44:00,38.7,37.0,29.68,West,269,4.0,8.0,92,0.00,,,0.52,weatherlink.com 1.10,2014-01-03 04:44:00,
2014-01-02 23:59:00,38.4,36.0,29.70,WSW,256,2.0,8.0,90,0.00,,,0.52,weatherlink.com 1.10,2014-01-03 04:59:00,